sensor_id;sensor_type;location;lat;lon;timestamp;pressure;altitude;pressure_sealevel;temperature
37452;BMP280;23314;51.114;6.900;2023-09-30T00:02:25;102215.91;;;13.44
37452;BMP280;23314;51.114;6.900;2023-09-30T00:04:51;102220.84;;;13.45
37452;BMP280;23314;51.114;6.900;2023-09-30T00:07:16;102218.97;;;13.46
37452;BMP280;23314;51.114;6.900;2023-09-30T00:09:41;102212.44;;;13.47
37452;BMP280;23314;51.114;6.900;2023-09-30T00:12:07;102227.00;;;13.49
37452;BMP280;23314;51.114;6.900;2023-09-30T00:14:32;102236.94;;;13.49
37452;BMP280;23314;51.114;6.900;2023-09-30T00:16:57;102243.84;;;13.50
37452;BMP280;23314;51.114;6.900;2023-09-30T00:19:22;102245.38;;;13.51
37452;BMP280;23314;51.114;6.900;2023-09-30T00:21:48;102235.41;;;13.51
37452;BMP280;23314;51.114;6.900;2023-09-30T00:24:14;102228.91;;;13.52
37452;BMP280;23314;51.114;6.900;2023-09-30T00:26:39;102246.91;;;13.56
37452;BMP280;23314;51.114;6.900;2023-09-30T00:29:05;102236.56;;;13.58
37452;BMP280;23314;51.114;6.900;2023-09-30T00:31:31;102236.91;;;13.60
37452;BMP280;23314;51.114;6.900;2023-09-30T00:33:57;102236.94;;;13.63
37452;BMP280;23314;51.114;6.900;2023-09-30T00:36:22;102230.41;;;13.64
37452;BMP280;23314;51.114;6.900;2023-09-30T00:38:48;102222.34;;;13.64
37452;BMP280;23314;51.114;6.900;2023-09-30T00:41:13;102214.69;;;13.66
37452;BMP280;23314;51.114;6.900;2023-09-30T00:43:39;102213.16;;;13.69
37452;BMP280;23314;51.114;6.900;2023-09-30T00:46:25;102221.94;;;13.73
37452;BMP280;23314;51.114;6.900;2023-09-30T00:48:52;102231.16;;;13.76
37452;BMP280;23314;51.114;6.900;2023-09-30T00:51:18;102232.28;;;13.78
37452;BMP280;23314;51.114;6.900;2023-09-30T00:53:44;102247.63;;;13.81
37452;BMP280;23314;51.114;6.900;2023-09-30T00:56:10;102241.88;;;13.83
37452;BMP280;23314;51.114;6.900;2023-09-30T00:58:38;102225.78;;;13.83
37452;BMP280;23314;51.114;6.900;2023-09-30T01:01:04;102228.81;;;13.85
37452;BMP280;23314;51.114;6.900;2023-09-30T01:03:29;102236.47;;;13.86
37452;BMP280;23314;51.114;6.900;2023-09-30T01:05:55;102237.25;;;13.87
37452;BMP280;23314;51.114;6.900;2023-09-30T01:08:21;102247.19;;;13.86
37452;BMP280;23314;51.114;6.900;2023-09-30T01:10:47;102246.03;;;13.87
37452;BMP280;23314;51.114;6.900;2023-09-30T01:13:12;102243.75;;;13.90
37452;BMP280;23314;51.114;6.900;2023-09-30T01:15:38;102249.91;;;13.90
37452;BMP280;23314;51.114;6.900;2023-09-30T01:18:03;102244.13;;;13.92
37452;BMP280;23314;51.114;6.900;2023-09-30T01:20:29;102237.59;;;13.93
37452;BMP280;23314;51.114;6.900;2023-09-30T01:22:56;102223.78;;;13.94
37452;BMP280;23314;51.114;6.900;2023-09-30T01:25:22;102223.78;;;13.94
37452;BMP280;23314;51.114;6.900;2023-09-30T01:27:47;102220.75;;;13.96
37452;BMP280;23314;51.114;6.900;2023-09-30T01:30:13;102230.69;;;13.95
37452;BMP280;23314;51.114;6.900;2023-09-30T01:32:39;102258.66;;;13.94
37452;BMP280;23314;51.114;6.900;2023-09-30T01:35:05;102254.84;;;13.95
37452;BMP280;23314;51.114;6.900;2023-09-30T01:37:31;102257.91;;;13.94
37452;BMP280;23314;51.114;6.900;2023-09-30T01:39:56;102252.16;;;13.92
37452;BMP280;23314;51.114;6.900;2023-09-30T01:42:21;102252.59;;;13.90
37452;BMP280;23314;51.114;6.900;2023-09-30T01:44:46;102249.91;;;13.90
37452;BMP280;23314;51.114;6.900;2023-09-30T01:47:12;102246.44;;;13.90
37452;BMP280;23314;51.114;6.900;2023-09-30T01:49:37;102241.06;;;13.90
37452;BMP280;23314;51.114;6.900;2023-09-30T01:52:03;102241.47;;;13.88
37452;BMP280;23314;51.114;6.900;2023-09-30T01:54:28;102256.78;;;13.87
37452;BMP280;23314;51.114;6.900;2023-09-30T01:56:54;102257.53;;;13.84
37452;BMP280;23314;51.114;6.900;2023-09-30T01:59:19;102267.16;;;13.82
37452;BMP280;23314;51.114;6.900;2023-09-30T02:01:44;102270.22;;;13.77
37452;BMP280;23314;51.114;6.900;2023-09-30T02:04:11;102275.97;;;13.71
37452;BMP280;23314;51.114;6.900;2023-09-30T02:06:38;102274.47;;;13.67
37452;BMP280;23314;51.114;6.900;2023-09-30T02:09:03;102267.94;;;13.61
37452;BMP280;23314;51.114;6.900;2023-09-30T02:11:30;102269.50;;;13.54
37452;BMP280;23314;51.114;6.900;2023-09-30T02:13:55;102274.88;;;13.51
37452;BMP280;23314;51.114;6.900;2023-09-30T02:16:20;102275.25;;;13.46
37452;BMP280;23314;51.114;6.900;2023-09-30T02:18:46;102281.75;;;13.41
37452;BMP280;23314;51.114;6.900;2023-09-30T02:21:12;102272.22;;;13.36
37452;BMP280;23314;51.114;6.900;2023-09-30T02:23:37;102267.59;;;13.33
37452;BMP280;23314;51.114;6.900;2023-09-30T02:26:03;102268.00;;;13.32
37452;BMP280;23314;51.114;6.900;2023-09-30T02:28:29;102263.41;;;13.29
37452;BMP280;23314;51.114;6.900;2023-09-30T02:30:57;102264.16;;;13.26
37452;BMP280;23314;51.114;6.900;2023-09-30T02:33:22;102261.09;;;13.20
37452;BMP280;23314;51.114;6.900;2023-09-30T02:35:47;102267.59;;;13.15
37452;BMP280;23314;51.114;6.900;2023-09-30T02:38:13;102266.81;;;13.11
37452;BMP280;23314;51.114;6.900;2023-09-30T02:40:41;102259.56;;;13.08
37452;BMP280;23314;51.114;6.900;2023-09-30T02:43:10;102256.84;;;13.04
37452;BMP280;23314;51.114;6.900;2023-09-30T02:45:35;102254.59;;;13.03
37452;BMP280;23314;51.114;6.900;2023-09-30T02:48:01;102264.91;;;13.01
37452;BMP280;23314;51.114;6.900;2023-09-30T02:50:26;102256.09;;;13.00
37452;BMP280;23314;51.114;6.900;2023-09-30T02:52:51;102267.97;;;12.99
37452;BMP280;23314;51.114;6.900;2023-09-30T02:55:17;102278.34;;;12.97
37452;BMP280;23314;51.114;6.900;2023-09-30T02:57:42;102277.94;;;12.95
37452;BMP280;23314;51.114;6.900;2023-09-30T03:00:09;102278.69;;;12.96
37452;BMP280;23314;51.114;6.900;2023-09-30T03:02:54;102275.63;;;12.94
37452;BMP280;23314;51.114;6.900;2023-09-30T03:05:21;102285.19;;;12.91
37452;BMP280;23314;51.114;6.900;2023-09-30T03:07:48;102287.06;;;12.91
37452;BMP280;23314;51.114;6.900;2023-09-30T03:10:16;102279.03;;;12.91
37452;BMP280;23314;51.114;6.900;2023-09-30T03:12:48;102289.41;;;12.92
37452;BMP280;23314;51.114;6.900;2023-09-30T03:15:14;102278.31;;;12.90
37452;BMP280;23314;51.114;6.900;2023-09-30T03:17:40;102264.13;;;12.90
37452;BMP280;23314;51.114;6.900;2023-09-30T03:20:07;102281.34;;;12.85
37452;BMP280;23314;51.114;6.900;2023-09-30T03:22:36;102284.44;;;12.83
37452;BMP280;23314;51.114;6.900;2023-09-30T03:25:02;102287.47;;;12.82
37452;BMP280;23314;51.114;6.900;2023-09-30T03:27:27;102284.38;;;12.80
37452;BMP280;23314;51.114;6.900;2023-09-30T03:29:52;102289.75;;;12.76
37452;BMP280;23314;51.114;6.900;2023-09-30T03:32:18;102291.63;;;12.72
37452;BMP280;23314;51.114;6.900;2023-09-30T03:34:43;102281.31;;;12.70
37452;BMP280;23314;51.114;6.900;2023-09-30T03:37:11;102286.31;;;12.68
37452;BMP280;23314;51.114;6.900;2023-09-30T03:39:37;102276.72;;;12.67
37452;BMP280;23314;51.114;6.900;2023-09-30T03:42:03;102261.00;;;12.66
37452;BMP280;23314;51.114;6.900;2023-09-30T03:44:29;102257.59;;;12.65
37452;BMP280;23314;51.114;6.900;2023-09-30T03:46:54;102257.19;;;12.63
37452;BMP280;23314;51.114;6.900;2023-09-30T03:49:19;102262.97;;;12.62
37452;BMP280;23314;51.114;6.900;2023-09-30T03:51:45;102271.00;;;12.62
37452;BMP280;23314;51.114;6.900;2023-09-30T03:54:11;102261.75;;;12.63
37452;BMP280;23314;51.114;6.900;2023-09-30T03:56:36;102267.13;;;12.59
37452;BMP280;23314;51.114;6.900;2023-09-30T03:59:03;102264.84;;;12.58
37452;BMP280;23314;51.114;6.900;2023-09-30T04:01:29;102257.16;;;12.56
37452;BMP280;23314;51.114;6.900;2023-09-30T04:03:56;102250.28;;;12.55
37452;BMP280;23314;51.114;6.900;2023-09-30T04:06:22;102257.56;;;12.54
37452;BMP280;23314;51.114;6.900;2023-09-30T04:08:47;102269.78;;;12.55
37452;BMP280;23314;51.114;6.900;2023-09-30T04:11:13;102269.03;;;12.55
37452;BMP280;23314;51.114;6.900;2023-09-30T04:13:46;102278.56;;;12.56
37452;BMP280;23314;51.114;6.900;2023-09-30T04:16:12;102272.47;;;12.55
37452;BMP280;23314;51.114;6.900;2023-09-30T04:18:37;102270.94;;;12.58
37452;BMP280;23314;51.114;6.900;2023-09-30T04:21:05;102269.06;;;12.59
37452;BMP280;23314;51.114;6.900;2023-09-30T04:23:32;102268.28;;;12.58
37452;BMP280;23314;51.114;6.900;2023-09-30T04:25:58;102259.47;;;12.58
37452;BMP280;23314;51.114;6.900;2023-09-30T04:28:23;102262.50;;;12.56
37452;BMP280;23314;51.114;6.900;2023-09-30T04:30:49;102258.72;;;12.53
37452;BMP280;23314;51.114;6.900;2023-09-30T04:33:18;102256.78;;;12.50
37452;BMP280;23314;51.114;6.900;2023-09-30T04:35:45;102251.44;;;12.47
37452;BMP280;23314;51.114;6.900;2023-09-30T04:38:10;102252.56;;;12.46
37452;BMP280;23314;51.114;6.900;2023-09-30T04:40:36;102260.19;;;12.44
37452;BMP280;23314;51.114;6.900;2023-09-30T04:43:02;102268.59;;;12.38
37452;BMP280;23314;51.114;6.900;2023-09-30T04:45:28;102278.50;;;12.34
37452;BMP280;23314;51.114;6.900;2023-09-30T04:47:54;102281.94;;;12.31
37452;BMP280;23314;51.114;6.900;2023-09-30T04:50:22;102286.47;;;12.27
37452;BMP280;23314;51.114;6.900;2023-09-30T04:52:50;102283.06;;;12.23
37452;BMP280;23314;51.114;6.900;2023-09-30T04:55:16;102292.59;;;12.17
37452;BMP280;23314;51.114;6.900;2023-09-30T04:57:46;102297.53;;;12.15
37452;BMP280;23314;51.114;6.900;2023-09-30T05:00:13;102291.78;;;12.09
37452;BMP280;23314;51.114;6.900;2023-09-30T05:02:39;102286.38;;;12.05
37452;BMP280;23314;51.114;6.900;2023-09-30T05:05:05;102275.69;;;12.02
37452;BMP280;23314;51.114;6.900;2023-09-30T05:07:34;102281.38;;;11.97
37452;BMP280;23314;51.114;6.900;2023-09-30T05:09:59;102285.56;;;11.94
37452;BMP280;23314;51.114;6.900;2023-09-30T05:12:31;102285.94;;;11.93
37452;BMP280;23314;51.114;6.900;2023-09-30T05:14:56;102293.53;;;11.90
37452;BMP280;23314;51.114;6.900;2023-09-30T05:17:22;102298.13;;;11.90
37452;BMP280;23314;51.114;6.900;2023-09-30T05:19:48;102288.97;;;11.87
37452;BMP280;23314;51.114;6.900;2023-09-30T05:22:13;102304.66;;;11.89
37452;BMP280;23314;51.114;6.900;2023-09-30T05:24:38;102306.56;;;11.88
37452;BMP280;23314;51.114;6.900;2023-09-30T05:27:03;102305.78;;;11.88
37452;BMP280;23314;51.114;6.900;2023-09-30T05:29:29;102303.50;;;11.94
37452;BMP280;23314;51.114;6.900;2023-09-30T05:31:58;102316.16;;;11.97
37452;BMP280;23314;51.114;6.900;2023-09-30T05:34:24;102315.41;;;11.96
37452;BMP280;23314;51.114;6.900;2023-09-30T05:36:49;102326.84;;;11.97
37452;BMP280;23314;51.114;6.900;2023-09-30T05:39:16;102321.13;;;11.98
37452;BMP280;23314;51.114;6.900;2023-09-30T05:41:45;102321.88;;;11.99
37452;BMP280;23314;51.114;6.900;2023-09-30T05:44:12;102315.41;;;12.00
37452;BMP280;23314;51.114;6.900;2023-09-30T05:46:39;102313.13;;;12.02
37452;BMP280;23314;51.114;6.900;2023-09-30T05:49:04;102314.31;;;12.08
37452;BMP280;23314;51.114;6.900;2023-09-30T05:51:35;102313.19;;;12.13
37452;BMP280;23314;51.114;6.900;2023-09-30T05:54:00;102317.41;;;12.17
37452;BMP280;23314;51.114;6.900;2023-09-30T05:56:25;102311.72;;;12.22
37452;BMP280;23314;51.114;6.900;2023-09-30T05:58:52;102317.47;;;12.28
37452;BMP280;23314;51.114;6.900;2023-09-30T06:01:17;102313.28;;;12.34
37452;BMP280;23314;51.114;6.900;2023-09-30T06:03:45;102319.84;;;12.41
37452;BMP280;23314;51.114;6.900;2023-09-30T06:06:15;102332.09;;;12.45
37452;BMP280;23314;51.114;6.900;2023-09-30T06:08:44;102334.81;;;12.52
37452;BMP280;23314;51.114;6.900;2023-09-30T06:11:17;102327.97;;;12.59
37452;BMP280;23314;51.114;6.900;2023-09-30T06:13:45;102329.16;;;12.68
37452;BMP280;23314;51.114;6.900;2023-09-30T06:16:12;102327.25;;;12.76
37452;BMP280;23314;51.114;6.900;2023-09-30T06:18:37;102336.06;;;12.84
37452;BMP280;23314;51.114;6.900;2023-09-30T06:21:03;102331.53;;;12.95
37452;BMP280;23314;51.114;6.900;2023-09-30T06:23:29;102330.38;;;13.03
37452;BMP280;23314;51.114;6.900;2023-09-30T06:25:55;102332.28;;;13.10
37452;BMP280;23314;51.114;6.900;2023-09-30T06:28:21;102332.31;;;13.14
37452;BMP280;23314;51.114;6.900;2023-09-30T06:30:54;102328.47;;;13.18
37452;BMP280;23314;51.114;6.900;2023-09-30T06:33:19;102332.69;;;13.27
37452;BMP280;23314;51.114;6.900;2023-09-30T06:35:46;102336.91;;;13.35
37452;BMP280;23314;51.114;6.900;2023-09-30T06:38:20;102330.03;;;13.41
37452;BMP280;23314;51.114;6.900;2023-09-30T06:40:46;102336.53;;;13.47
37452;BMP280;23314;51.114;6.900;2023-09-30T06:43:16;102344.59;;;13.51
37452;BMP280;23314;51.114;6.900;2023-09-30T06:45:42;102341.91;;;13.54
37452;BMP280;23314;51.114;6.900;2023-09-30T06:48:08;102356.06;;;13.55
37452;BMP280;23314;51.114;6.900;2023-09-30T06:50:50;102356.84;;;13.59
37452;BMP280;23314;51.114;6.900;2023-09-30T06:53:16;102353.38;;;13.66
37452;BMP280;23314;51.114;6.900;2023-09-30T06:55:42;102361.44;;;13.73
37452;BMP280;23314;51.114;6.900;2023-09-30T06:58:11;102370.25;;;13.81
37452;BMP280;23314;51.114;6.900;2023-09-30T07:00:37;102375.97;;;13.86
37452;BMP280;23314;51.114;6.900;2023-09-30T07:03:03;102362.16;;;13.95
37452;BMP280;23314;51.114;6.900;2023-09-30T07:05:28;102362.13;;;14.06
37452;BMP280;23314;51.114;6.900;2023-09-30T07:07:54;102356.41;;;14.15
37452;BMP280;23314;51.114;6.900;2023-09-30T07:10:20;102351.75;;;14.26
37452;BMP280;23314;51.114;6.900;2023-09-30T07:12:45;102361.66;;;14.44
37452;BMP280;23314;51.114;6.900;2023-09-30T07:15:11;102362.34;;;14.62
37452;BMP280;23314;51.114;6.900;2023-09-30T07:17:36;102364.53;;;14.78
37452;BMP280;23314;51.114;6.900;2023-09-30T07:20:05;102369.09;;;14.92
37452;BMP280;23314;51.114;6.900;2023-09-30T07:22:31;102370.91;;;15.10
37452;BMP280;23314;51.114;6.900;2023-09-30T07:24:57;102365.44;;;15.20
37452;BMP280;23314;51.114;6.900;2023-09-30T07:27:23;102372.25;;;15.36
37452;BMP280;23314;51.114;6.900;2023-09-30T07:29:49;102375.63;;;15.47
37452;BMP280;23314;51.114;6.900;2023-09-30T07:32:14;102370.59;;;15.53
37452;BMP280;23314;51.114;6.900;2023-09-30T07:34:40;102377.84;;;15.56
37452;BMP280;23314;51.114;6.900;2023-09-30T07:37:05;102390.50;;;15.56
37452;BMP280;23314;51.114;6.900;2023-09-30T07:39:30;102395.91;;;15.59
37452;BMP280;23314;51.114;6.900;2023-09-30T07:41:56;102400.84;;;15.61
37452;BMP280;23314;51.114;6.900;2023-09-30T07:44:21;102407.00;;;15.61
37452;BMP280;23314;51.114;6.900;2023-09-30T07:46:47;102411.56;;;15.68
37452;BMP280;23314;51.114;6.900;2023-09-30T07:49:12;102408.81;;;15.75
37452;BMP280;23314;51.114;6.900;2023-09-30T07:51:37;102410.25;;;15.83
37452;BMP280;23314;51.114;6.900;2023-09-30T07:54:05;102415.59;;;15.91
37452;BMP280;23314;51.114;6.900;2023-09-30T07:56:30;102410.16;;;15.98
37452;BMP280;23314;51.114;6.900;2023-09-30T07:58:56;102405.53;;;15.95
37452;BMP280;23314;51.114;6.900;2023-09-30T08:01:21;102400.53;;;15.97
37452;BMP280;23314;51.114;6.900;2023-09-30T08:03:47;102403.22;;;15.97
37452;BMP280;23314;51.114;6.900;2023-09-30T08:06:12;102410.94;;;15.95
37452;BMP280;23314;51.114;6.900;2023-09-30T08:08:38;102422.78;;;16.01
37452;BMP280;23314;51.114;6.900;2023-09-30T08:11:03;102428.47;;;16.10
37452;BMP280;23314;51.114;6.900;2023-09-30T08:13:30;102433.00;;;16.20
37452;BMP280;23314;51.114;6.900;2023-09-30T08:15:56;102435.63;;;16.24
37452;BMP280;23314;51.114;6.900;2023-09-30T08:18:21;102433.25;;;16.30
37452;BMP280;23314;51.114;6.900;2023-09-30T08:20:46;102441.13;;;16.48
37452;BMP280;23314;51.114;6.900;2023-09-30T08:23:12;102434.72;;;16.69
37452;BMP280;23314;51.114;6.900;2023-09-30T08:25:37;102444.44;;;16.90
37452;BMP280;23314;51.114;6.900;2023-09-30T08:28:04;102437.63;;;17.09
37452;BMP280;23314;51.114;6.900;2023-09-30T08:30:29;102442.06;;;17.19
37452;BMP280;23314;51.114;6.900;2023-09-30T08:32:54;102439.34;;;17.23
37452;BMP280;23314;51.114;6.900;2023-09-30T08:35:20;102438.91;;;17.28
37452;BMP280;23314;51.114;6.900;2023-09-30T08:37:45;102433.72;;;17.37
37452;BMP280;23314;51.114;6.900;2023-09-30T08:40:11;102438.19;;;17.48
37452;BMP280;23314;51.114;6.900;2023-09-30T08:42:38;102440.28;;;17.60
37452;BMP280;23314;51.114;6.900;2023-09-30T08:45:04;102436.91;;;17.76
37452;BMP280;23314;51.114;6.900;2023-09-30T08:47:33;102449.75;;;17.92
37452;BMP280;23314;51.114;6.900;2023-09-30T08:50:00;102452.16;;;18.06
37452;BMP280;23314;51.114;6.900;2023-09-30T08:52:32;102446.03;;;18.06
37452;BMP280;23314;51.114;6.900;2023-09-30T08:54:58;102447.56;;;18.07
37452;BMP280;23314;51.114;6.900;2023-09-30T08:57:24;102441.31;;;18.10
37452;BMP280;23314;51.114;6.900;2023-09-30T08:59:50;102449.34;;;18.14
37452;BMP280;23314;51.114;6.900;2023-09-30T09:02:18;102434.22;;;18.16
37452;BMP280;23314;51.114;6.900;2023-09-30T09:04:44;102427.59;;;18.21
37452;BMP280;23314;51.114;6.900;2023-09-30T09:07:10;102417.75;;;18.31
37452;BMP280;23314;51.114;6.900;2023-09-30T09:09:35;102404.91;;;18.35
37452;BMP280;23314;51.114;6.900;2023-09-30T09:12:00;102403.31;;;18.37
37452;BMP280;23314;51.114;6.900;2023-09-30T09:14:44;102401.03;;;18.36
37452;BMP280;23314;51.114;6.900;2023-09-30T09:17:10;102399.88;;;18.37
37452;BMP280;23314;51.114;6.900;2023-09-30T09:19:36;102416.75;;;18.41
37452;BMP280;23314;51.114;6.900;2023-09-30T09:22:03;102411.13;;;18.52
37452;BMP280;23314;51.114;6.900;2023-09-30T09:24:33;102403.47;;;18.67
37452;BMP280;23314;51.114;6.900;2023-09-30T09:27:10;102408.00;;;18.86
37452;BMP280;23314;51.114;6.900;2023-09-30T09:29:36;102406.00;;;19.07
37452;BMP280;23314;51.114;6.900;2023-09-30T09:32:12;102402.81;;;19.25
37452;BMP280;23314;51.114;6.900;2023-09-30T09:34:42;102395.78;;;19.44
37452;BMP280;23314;51.114;6.900;2023-09-30T09:37:18;102404.09;;;19.66
37452;BMP280;23314;51.114;6.900;2023-09-30T09:39:54;102396.00;;;19.79
37452;BMP280;23314;51.114;6.900;2023-09-30T09:42:29;102398.41;;;19.90
37452;BMP280;23314;51.114;6.900;2023-09-30T09:45:00;102399.63;;;20.15
37452;BMP280;23314;51.114;6.900;2023-09-30T09:47:26;102403.97;;;20.38
37452;BMP280;23314;51.114;6.900;2023-09-30T09:49:52;102399.59;;;20.66
37452;BMP280;23314;51.114;6.900;2023-09-30T09:52:19;102408.00;;;20.94
37452;BMP280;23314;51.114;6.900;2023-09-30T09:54:45;102406.34;;;21.09
37452;BMP280;23314;51.114;6.900;2023-09-30T09:57:12;102400.41;;;21.24
37452;BMP280;23314;51.114;6.900;2023-09-30T09:59:38;102404.13;;;21.39
37452;BMP280;23314;51.114;6.900;2023-09-30T10:02:10;102414.44;;;21.44
37452;BMP280;23314;51.114;6.900;2023-09-30T10:04:45;102411.41;;;21.42
37452;BMP280;23314;51.114;6.900;2023-09-30T10:07:20;102412.19;;;21.43
37452;BMP280;23314;51.114;6.900;2023-09-30T10:09:49;102414.03;;;21.46
37452;BMP280;23314;51.114;6.900;2023-09-30T10:12:16;102420.69;;;21.54
37452;BMP280;23314;51.114;6.900;2023-09-30T10:14:42;102425.50;;;21.50
37452;BMP280;23314;51.114;6.900;2023-09-30T10:17:07;102436.81;;;21.48
37452;BMP280;23314;51.114;6.900;2023-09-30T10:19:33;102434.09;;;21.48
37452;BMP280;23314;51.114;6.900;2023-09-30T10:24:47;102438.72;;;21.39
37452;BMP280;23314;51.114;6.900;2023-09-30T10:35:42;102427.00;;;20.94
37452;BMP280;23314;51.114;6.900;2023-09-30T10:40:53;102423.44;;;20.71
37452;BMP280;23314;51.114;6.900;2023-09-30T10:43:40;102429.88;;;20.64
37452;BMP280;23314;51.114;6.900;2023-09-30T10:48:54;102436.28;;;20.84
37452;BMP280;23314;51.114;6.900;2023-09-30T10:51:20;102436.28;;;20.84
37452;BMP280;23314;51.114;6.900;2023-09-30T10:53:52;102436.25;;;20.96
37452;BMP280;23314;51.114;6.900;2023-09-30T10:56:21;102449.31;;;21.11
37452;BMP280;23314;51.114;6.900;2023-09-30T10:58:51;102445.38;;;21.25
37452;BMP280;23314;51.114;6.900;2023-09-30T11:03:45;102439.38;;;21.52
37452;BMP280;23314;51.114;6.900;2023-09-30T11:06:12;102435.41;;;21.66
37452;BMP280;23314;51.114;6.900;2023-09-30T11:08:44;102419.00;;;21.69
37452;BMP280;23314;51.114;6.900;2023-09-30T11:11:11;102424.28;;;21.73
37452;BMP280;23314;51.114;6.900;2023-09-30T11:13:36;102417.97;;;21.76
37452;BMP280;23314;51.114;6.900;2023-09-30T11:16:03;102413.59;;;21.79
37452;BMP280;23314;51.114;6.900;2023-09-30T11:18:30;102401.28;;;21.87
37452;BMP280;23314;51.114;6.900;2023-09-30T11:21:09;102403.44;;;21.92
37452;BMP280;23314;51.114;6.900;2023-09-30T11:23:40;102409.75;;;21.98
37452;BMP280;23314;51.114;6.900;2023-09-30T11:26:06;102404.31;;;21.98
37452;BMP280;23314;51.114;6.900;2023-09-30T11:28:42;102399.47;;;21.93
37452;BMP280;23314;51.114;6.900;2023-09-30T11:31:10;102400.84;;;21.98
37452;BMP280;23314;51.114;6.900;2023-09-30T11:33:55;102405.72;;;22.03
37452;BMP280;23314;51.114;6.900;2023-09-30T11:36:22;102398.78;;;22.02
37452;BMP280;23314;51.114;6.900;2023-09-30T11:38:49;102396.78;;;22.02
37452;BMP280;23314;51.114;6.900;2023-09-30T11:41:16;102390.16;;;22.03
37452;BMP280;23314;51.114;6.900;2023-09-30T11:44:12;102387.91;;;22.02
37452;BMP280;23314;51.114;6.900;2023-09-30T11:46:56;102394.22;;;21.99
37452;BMP280;23314;51.114;6.900;2023-09-30T11:49:35;102390.72;;;21.98
37452;BMP280;23314;51.114;6.900;2023-09-30T11:52:04;102371.59;;;22.02
37452;BMP280;23314;51.114;6.900;2023-09-30T11:54:34;102369.19;;;22.04
37452;BMP280;23314;51.114;6.900;2023-09-30T11:57:02;102370.38;;;22.03
37452;BMP280;23314;51.114;6.900;2023-09-30T11:59:29;102367.19;;;22.04
37452;BMP280;23314;51.114;6.900;2023-09-30T12:01:54;102365.09;;;22.09
37452;BMP280;23314;51.114;6.900;2023-09-30T12:04:20;102371.47;;;22.15
37452;BMP280;23314;51.114;6.900;2023-09-30T12:06:47;102365.31;;;22.24
37452;BMP280;23314;51.114;6.900;2023-09-30T12:09:14;102360.50;;;22.28
37452;BMP280;23314;51.114;6.900;2023-09-30T12:11:41;102362.91;;;22.26
37452;BMP280;23314;51.114;6.900;2023-09-30T12:14:10;102351.28;;;22.34
37452;BMP280;23314;51.114;6.900;2023-09-30T12:16:35;102350.69;;;22.39
37452;BMP280;23314;51.114;6.900;2023-09-30T12:19:00;102352.97;;;22.50
37452;BMP280;23314;51.114;6.900;2023-09-30T12:21:25;102343.47;;;22.64
37452;BMP280;23314;51.114;6.900;2023-09-30T12:23:51;102341.03;;;22.76
37452;BMP280;23314;51.114;6.900;2023-09-30T12:26:16;102321.38;;;22.81
37452;BMP280;23314;51.114;6.900;2023-09-30T12:28:45;102314.41;;;22.89
37452;BMP280;23314;51.114;6.900;2023-09-30T12:31:10;102317.75;;;22.93
37452;BMP280;23314;51.114;6.900;2023-09-30T12:33:36;102301.25;;;22.97
37452;BMP280;23314;51.114;6.900;2023-09-30T12:36:02;102305.81;;;22.90
37452;BMP280;23314;51.114;6.900;2023-09-30T12:38:27;102308.81;;;22.92
37452;BMP280;23314;51.114;6.900;2023-09-30T12:40:54;102322.91;;;22.91
37452;BMP280;23314;51.114;6.900;2023-09-30T12:43:19;102338.44;;;22.81
37452;BMP280;23314;51.114;6.900;2023-09-30T12:45:46;102340.75;;;22.83
37452;BMP280;23314;51.114;6.900;2023-09-30T12:48:12;102336.66;;;22.87
37452;BMP280;23314;51.114;6.900;2023-09-30T12:50:38;102336.19;;;22.89
37452;BMP280;23314;51.114;6.900;2023-09-30T12:53:03;102332.56;;;22.92
37452;BMP280;23314;51.114;6.900;2023-09-30T12:55:29;102336.94;;;22.89
37452;BMP280;23314;51.114;6.900;2023-09-30T12:57:54;102328.94;;;22.86
37452;BMP280;23314;51.114;6.900;2023-09-30T13:00:19;102328.03;;;22.89
37452;BMP280;23314;51.114;6.900;2023-09-30T13:02:47;102324.84;;;22.90
37452;BMP280;23314;51.114;6.900;2023-09-30T13:05:13;102333.00;;;23.00
37452;BMP280;23314;51.114;6.900;2023-09-30T13:07:39;102317.72;;;23.02
37452;BMP280;23314;51.114;6.900;2023-09-30T13:10:04;102310.91;;;23.07
37452;BMP280;23314;51.114;6.900;2023-09-30T13:12:31;102309.69;;;23.08
37452;BMP280;23314;51.114;6.900;2023-09-30T13:14:58;102314.09;;;23.15
37452;BMP280;23314;51.114;6.900;2023-09-30T13:17:24;102314.09;;;23.05
37452;BMP280;23314;51.114;6.900;2023-09-30T13:19:51;102319.25;;;22.94
37452;BMP280;23314;51.114;6.900;2023-09-30T13:22:17;102317.75;;;22.93
37452;BMP280;23314;51.114;6.900;2023-09-30T13:24:42;102315.00;;;23.02
37452;BMP280;23314;51.114;6.900;2023-09-30T13:27:08;102312.56;;;23.14
37452;BMP280;23314;51.114;6.900;2023-09-30T13:29:33;102319.91;;;23.32
37452;BMP280;23314;51.114;6.900;2023-09-30T13:31:59;102318.34;;;23.49
37452;BMP280;23314;51.114;6.900;2023-09-30T13:34:24;102309.78;;;23.66
37452;BMP280;23314;51.114;6.900;2023-09-30T13:36:50;102303.22;;;23.82
37452;BMP280;23314;51.114;6.900;2023-09-30T13:39:15;102300.00;;;23.83
37452;BMP280;23314;51.114;6.900;2023-09-30T13:41:43;102290.25;;;23.91
37452;BMP280;23314;51.114;6.900;2023-09-30T13:44:09;102287.25;;;23.89
37452;BMP280;23314;51.114;6.900;2023-09-30T13:46:34;102280.59;;;23.90
37452;BMP280;23314;51.114;6.900;2023-09-30T13:48:59;102276.81;;;23.88
37452;BMP280;23314;51.114;6.900;2023-09-30T13:51:25;102281.22;;;23.85
37452;BMP280;23314;51.114;6.900;2023-09-30T13:53:51;102276.38;;;23.80
37452;BMP280;23314;51.114;6.900;2023-09-30T13:56:18;102266.59;;;23.73
37452;BMP280;23314;51.114;6.900;2023-09-30T13:58:44;102269.84;;;23.62
37452;BMP280;23314;51.114;6.900;2023-09-30T14:01:09;102274.59;;;23.53
37452;BMP280;23314;51.114;6.900;2023-09-30T14:03:36;102273.25;;;23.48
37452;BMP280;23314;51.114;6.900;2023-09-30T14:06:01;102272.19;;;23.45
37452;BMP280;23314;51.114;6.900;2023-09-30T14:08:27;102267.84;;;23.39
37452;BMP280;23314;51.114;6.900;2023-09-30T14:10:52;102263.78;;;23.34
37452;BMP280;23314;51.114;6.900;2023-09-30T14:13:18;102259.28;;;23.22
37452;BMP280;23314;51.114;6.900;2023-09-30T14:15:44;102255.22;;;23.08